createdAt,value
2022-09-28T00:01:07.909Z,5.20
2022-09-28T00:03:35.981Z,5.27
2022-09-28T00:06:06.264Z,4.97
2022-09-28T00:08:35.062Z,5.00
2022-09-28T00:11:04.076Z,4.70
2022-09-28T00:13:34.189Z,4.60
2022-09-28T00:16:04.104Z,4.30
2022-09-28T00:18:32.566Z,4.33
2022-09-28T00:21:08.765Z,4.17
2022-09-28T00:23:58.711Z,4.27
2022-09-28T00:26:27.321Z,4.43
2022-09-28T00:28:58.664Z,4.43
2022-09-28T00:31:26.655Z,4.63
2022-09-28T00:33:56.841Z,4.60
2022-09-28T00:36:26.987Z,5.10
2022-09-28T00:38:55.335Z,5.23
2022-09-28T00:41:24.062Z,4.87
2022-09-28T00:43:52.161Z,4.60
2022-09-28T00:46:31.102Z,4.47
2022-09-28T00:49:03.536Z,4.60
2022-09-28T00:51:33.143Z,4.67
2022-09-28T00:54:03.663Z,3.90
2022-09-28T00:56:35.162Z,3.77
2022-09-28T00:59:04.717Z,3.83
2022-09-28T01:01:33.949Z,3.90
2022-09-28T01:04:04.939Z,3.53
2022-09-28T01:06:35.823Z,3.37
2022-09-28T01:09:06.222Z,2.60
2022-09-28T01:11:36.595Z,2.30
2022-09-28T01:14:08.375Z,4.50
2022-09-28T01:16:47.719Z,2.97
2022-09-28T01:19:48.836Z,2.87
2022-09-28T01:22:29.449Z,2.50
2022-09-28T01:25:07.814Z,2.07
2022-09-28T01:27:41.623Z,2.50
2022-09-28T01:30:11.934Z,2.17
2022-09-28T01:32:49.097Z,1.67
2022-09-28T01:35:21.900Z,2.40
2022-09-28T01:37:54.022Z,2.30
2022-09-28T01:40:24.128Z,2.10
2022-09-28T01:42:58.835Z,2.70
2022-09-28T01:45:31.084Z,2.07
2022-09-28T01:48:04.170Z,1.90
2022-09-28T01:50:37.590Z,2.47
2022-09-28T01:53:11.869Z,2.90
2022-09-28T01:55:43.506Z,1.83
2022-09-28T01:58:18.892Z,2.07
2022-09-28T02:00:55.030Z,2.00
2022-09-28T02:03:27.133Z,1.70
2022-09-28T02:05:58.063Z,2.10
2022-09-28T02:08:32.400Z,2.13
2022-09-28T02:11:06.810Z,1.90
2022-09-28T02:13:40.723Z,2.40
2022-09-28T02:16:14.667Z,1.80
2022-09-28T02:18:43.170Z,2.00
2022-09-28T02:21:16.423Z,2.60
2022-09-28T02:23:53.961Z,2.30
2022-09-28T02:26:26.040Z,1.60
2022-09-28T02:28:55.422Z,1.90
2022-09-28T02:31:23.429Z,1.77
2022-09-28T02:33:53.251Z,1.40
2022-09-28T02:36:21.133Z,1.30
2022-09-28T02:38:49.693Z,1.60
2022-09-28T02:41:32.077Z,1.37
2022-09-28T02:44:14.790Z,1.40
2022-09-28T02:46:53.279Z,1.10
2022-09-28T02:49:29.278Z,1.30
2022-09-28T02:52:20.747Z,1.20
2022-09-28T02:55:20.299Z,1.30
2022-09-28T02:58:01.554Z,1.30
2022-09-28T03:00:38.643Z,1.53
2022-09-28T03:03:21.714Z,1.30
2022-09-28T03:05:58.002Z,1.53
2022-09-28T03:08:32.239Z,1.30
2022-09-28T03:11:04.113Z,1.40
2022-09-28T03:13:32.884Z,1.10
2022-09-28T03:16:11.053Z,1.13
2022-09-28T03:18:39.313Z,1.40
2022-09-28T03:21:07.377Z,1.57
2022-09-28T03:23:35.305Z,1.40
2022-09-28T03:26:03.268Z,1.30
2022-09-28T03:28:31.484Z,1.50
2022-09-28T03:30:59.347Z,1.60
2022-09-28T03:33:28.651Z,1.57
2022-09-28T03:35:56.607Z,1.40
2022-09-28T03:38:24.677Z,1.10
2022-09-28T03:40:56.258Z,0.97
2022-09-28T03:43:25.032Z,1.03
2022-09-28T03:45:54.432Z,1.00
2022-09-28T03:48:27.649Z,0.87
2022-09-28T03:51:01.221Z,1.10
2022-09-28T03:53:29.793Z,1.10
2022-09-28T03:55:57.831Z,1.13
2022-09-28T03:58:25.745Z,1.30
2022-09-28T04:00:53.790Z,0.90
2022-09-28T04:03:21.735Z,1.10
2022-09-28T04:05:51.089Z,0.80
2022-09-28T04:08:20.961Z,1.00
2022-09-28T04:10:48.806Z,1.03
2022-09-28T04:13:16.720Z,1.17
2022-09-28T04:15:44.998Z,1.10
2022-09-28T04:18:13.781Z,0.90
2022-09-28T04:20:45.442Z,1.00
2022-09-28T04:23:13.546Z,0.97
2022-09-28T04:25:45.881Z,1.20
2022-09-28T04:28:31.293Z,1.00
2022-09-28T04:30:59.126Z,0.90
2022-09-28T04:33:26.962Z,1.00
2022-09-28T04:35:54.857Z,1.00
2022-09-28T04:38:41.561Z,0.90
2022-09-28T04:41:12.310Z,1.00
2022-09-28T04:43:40.252Z,1.10
2022-09-28T04:46:08.224Z,0.90
2022-09-28T04:48:36.147Z,1.00
2022-09-28T04:51:03.985Z,1.30
2022-09-28T04:53:35.137Z,1.20
2022-09-28T04:56:04.954Z,1.20
2022-09-28T04:58:35.964Z,1.10
2022-09-28T05:01:06.850Z,1.20
2022-09-28T05:03:35.021Z,1.10
2022-09-28T05:06:03.366Z,1.10
2022-09-28T05:08:31.729Z,1.13
2022-09-28T05:11:01.046Z,1.10
2022-09-28T05:13:29.944Z,1.43
2022-09-28T05:16:04.974Z,1.43
2022-09-28T05:18:33.766Z,3.30
2022-09-28T05:21:02.261Z,2.80
2022-09-28T05:23:30.130Z,1.97
2022-09-28T05:25:58.132Z,2.70
2022-09-28T05:28:30.026Z,2.80
2022-09-28T05:31:01.422Z,3.43
2022-09-28T05:33:31.096Z,2.90
2022-09-28T05:36:01.266Z,2.63
2022-09-28T05:38:30.202Z,2.63
2022-09-28T05:40:59.695Z,2.80
2022-09-28T05:43:29.166Z,1.97
2022-09-28T05:45:57.142Z,2.17
2022-09-28T05:48:27.730Z,2.50
2022-09-28T05:50:56.146Z,2.50
2022-09-28T05:53:26.147Z,2.40
2022-09-28T05:55:54.182Z,2.30
2022-09-28T05:58:22.084Z,2.50
2022-09-28T06:00:55.656Z,2.17
2022-09-28T06:03:24.011Z,1.80
2022-09-28T06:05:53.329Z,2.30
2022-09-28T06:08:21.189Z,2.33
2022-09-28T06:10:49.137Z,2.70
2022-09-28T06:13:17.145Z,2.50
2022-09-28T06:15:46.431Z,2.10
2022-09-28T06:18:15.950Z,2.30
2022-09-28T06:20:44.267Z,2.40
2022-09-28T06:23:14.818Z,1.90
2022-09-28T06:25:42.796Z,1.80
2022-09-28T06:28:12.400Z,1.80
2022-09-28T06:30:41.057Z,2.10
2022-09-28T06:33:12.535Z,2.00
2022-09-28T06:35:40.890Z,2.10
2022-09-28T06:38:11.245Z,2.20
2022-09-28T06:40:40.711Z,1.83
2022-09-28T06:43:11.685Z,1.67
2022-09-28T06:45:40.337Z,1.40
2022-09-28T06:48:09.423Z,1.70
2022-09-28T06:50:39.638Z,1.60
2022-09-28T06:53:10.110Z,1.60
2022-09-28T06:55:41.550Z,1.67
2022-09-28T06:58:12.560Z,1.60
2022-09-28T07:00:41.549Z,2.10
2022-09-28T07:03:12.985Z,2.80
2022-09-28T07:05:44.546Z,3.10
2022-09-28T07:08:13.279Z,3.37
2022-09-28T07:10:45.108Z,3.30
2022-09-28T07:13:37.889Z,3.47
2022-09-28T07:16:02.953Z,3.40
2022-09-28T07:18:30.953Z,3.50
2022-09-28T07:20:59.409Z,3.20
2022-09-28T07:23:30.227Z,3.63
2022-09-28T07:26:05.859Z,4.20
2022-09-28T07:28:34.619Z,5.27
2022-09-28T07:31:03.734Z,3.43
2022-09-28T07:33:32.869Z,3.10
2022-09-28T07:36:06.448Z,3.50
2022-09-28T07:38:34.809Z,3.70
2022-09-28T07:41:11.932Z,3.80
2022-09-28T07:43:40.826Z,3.13
2022-09-28T07:46:12.159Z,3.23
2022-09-28T07:48:41.898Z,3.40
2022-09-28T07:51:10.614Z,3.47
2022-09-28T07:53:39.247Z,3.73
2022-09-28T07:56:09.435Z,3.50
2022-09-28T07:58:38.634Z,2.97
2022-09-28T08:01:10.463Z,3.20
2022-09-28T08:03:39.602Z,2.90
2022-09-28T08:06:11.113Z,2.43
2022-09-28T08:08:44.559Z,2.60
2022-09-28T08:11:15.823Z,2.03
2022-09-28T08:13:46.537Z,1.70
2022-09-28T08:16:14.572Z,2.37
2022-09-28T08:18:44.369Z,2.17
2022-09-28T08:21:30.136Z,2.13
2022-09-28T08:24:00.340Z,1.80
2022-09-28T08:26:30.213Z,1.50
2022-09-28T08:28:58.008Z,1.37
2022-09-28T08:31:25.896Z,1.07
2022-09-28T08:33:53.802Z,1.00
2022-09-28T08:36:21.775Z,1.70
2022-09-28T08:38:49.634Z,1.80
2022-09-28T08:41:24.531Z,1.77
2022-09-28T08:44:24.198Z,2.30
2022-09-28T08:46:57.031Z,2.37
2022-09-28T08:49:30.417Z,2.00
2022-09-28T08:52:02.003Z,1.70
2022-09-28T08:54:38.920Z,1.70
2022-09-28T08:57:12.605Z,1.63
2022-09-28T08:59:53.665Z,1.30
2022-09-28T09:02:27.154Z,1.40
2022-09-28T09:04:57.036Z,1.60
2022-09-28T09:07:50.434Z,1.37
2022-09-28T09:10:39.194Z,1.40
2022-09-28T09:13:19.123Z,1.40
2022-09-28T09:15:55.283Z,1.40
2022-09-28T09:18:34.326Z,1.23
2022-09-28T09:21:10.986Z,1.30
2022-09-28T09:23:44.600Z,1.20
2022-09-28T09:26:22.829Z,1.40
2022-09-28T09:29:30.289Z,1.23
2022-09-28T09:32:19.398Z,1.43
2022-09-28T09:35:14.592Z,1.20
2022-09-28T09:38:00.551Z,1.10
2022-09-28T09:40:41.038Z,1.40
2022-09-28T09:43:30.879Z,1.40
2022-09-28T09:46:11.447Z,1.30
2022-09-28T09:48:48.473Z,1.30
2022-09-28T09:51:24.966Z,1.40
2022-09-28T09:54:00.216Z,1.40
2022-09-28T09:56:36.919Z,1.43
2022-09-28T09:59:11.443Z,1.37
2022-09-28T10:01:41.134Z,1.40
2022-09-28T10:04:20.586Z,1.50
2022-09-28T10:06:50.744Z,1.30
2022-09-28T10:09:24.871Z,1.50
2022-09-28T10:11:54.415Z,1.50
2022-09-28T10:14:24.285Z,1.20
2022-09-28T10:16:54.280Z,1.27
2022-09-28T10:19:31.767Z,1.37
2022-09-28T10:22:02.140Z,1.20
2022-09-28T10:24:32.886Z,1.60
2022-09-28T10:27:06.606Z,1.40
2022-09-28T10:29:45.168Z,1.20
2022-09-28T10:32:22.062Z,1.23
2022-09-28T10:34:52.191Z,1.30
2022-09-28T10:37:20.684Z,1.27
2022-09-28T10:39:51.673Z,1.10
2022-09-28T10:42:23.651Z,1.30
2022-09-28T10:44:55.313Z,1.30
2022-09-28T10:47:26.136Z,1.07
2022-09-28T10:49:57.277Z,1.40
2022-09-28T10:52:39.831Z,1.07
2022-09-28T10:55:30.601Z,1.33
2022-09-28T10:57:58.812Z,1.20
2022-09-28T11:00:38.123Z,1.20
2022-09-28T11:03:06.526Z,1.20
2022-09-28T11:05:36.002Z,1.20
2022-09-28T11:08:09.080Z,1.20
2022-09-28T11:10:37.269Z,1.00
2022-09-28T11:13:10.024Z,1.10
2022-09-28T11:15:43.855Z,1.23
2022-09-28T11:18:22.543Z,1.20
2022-09-28T11:20:51.843Z,1.10
2022-09-28T11:23:23.363Z,1.30
2022-09-28T11:26:00.099Z,1.30
2022-09-28T11:28:33.670Z,1.30
2022-09-28T11:31:03.102Z,1.30
2022-09-28T11:33:34.049Z,1.50
2022-09-28T11:36:17.020Z,1.30
2022-09-28T11:38:56.399Z,1.40
2022-09-28T11:41:47.439Z,1.30
2022-09-28T11:44:39.130Z,1.33
2022-09-28T11:47:21.710Z,1.40
2022-09-28T11:49:56.208Z,1.40
2022-09-28T11:52:29.303Z,1.30
2022-09-28T11:55:01.689Z,1.80
2022-09-28T11:57:35.509Z,2.00
2022-09-28T12:00:06.881Z,2.50
2022-09-28T12:02:38.109Z,2.63
2022-09-28T12:05:18.504Z,4.33
2022-09-28T12:07:54.323Z,4.90
2022-09-28T12:10:32.489Z,5.00
2022-09-28T12:13:05.022Z,5.50
2022-09-28T12:16:12.987Z,6.50
2022-09-28T12:18:39.347Z,6.90
2022-09-28T12:21:22.932Z,6.60
2022-09-28T12:23:56.930Z,6.77
2022-09-28T12:26:37.234Z,4.80
2022-09-28T12:29:13.986Z,4.63
2022-09-28T12:31:57.042Z,3.30
2022-09-28T12:34:25.055Z,3.67
2022-09-28T12:37:05.660Z,3.13
2022-09-28T12:39:57.883Z,3.70
2022-09-28T12:42:53.629Z,3.23
2022-09-28T12:45:53.193Z,2.37
2022-09-28T12:49:36.644Z,2.00
2022-09-28T12:51:51.954Z,2.10
2022-09-28T12:54:35.679Z,1.90
2022-09-28T12:57:22.931Z,1.90
2022-09-28T13:00:02.728Z,2.00
2022-09-28T13:02:58.907Z,2.00
2022-09-28T13:05:48.999Z,2.00
2022-09-28T13:08:26.270Z,2.30
2022-09-28T13:11:07.996Z,2.10
2022-09-28T13:13:51.799Z,2.00
2022-09-28T13:16:28.485Z,2.37
2022-09-28T13:19:05.122Z,2.40
2022-09-28T13:21:40.929Z,2.80
2022-09-28T13:24:31.593Z,2.73
2022-09-28T13:27:05.882Z,2.60
2022-09-28T13:29:36.636Z,2.37
2022-09-28T13:32:05.317Z,1.80
2022-09-28T13:34:37.222Z,1.90
2022-09-28T13:37:21.921Z,1.73
2022-09-28T13:39:56.454Z,1.60
2022-09-28T13:42:51.114Z,1.80
2022-09-28T13:45:41.629Z,2.10
2022-09-28T13:48:17.042Z,2.10
2022-09-28T13:51:09.032Z,2.10
2022-09-28T13:53:53.070Z,2.43
2022-09-28T13:56:35.345Z,1.97
2022-09-28T13:59:11.166Z,2.20
2022-09-28T14:01:43.664Z,2.60
2022-09-28T14:04:16.605Z,2.17
2022-09-28T14:06:49.418Z,1.90
2022-09-28T14:09:41.774Z,1.80
2022-09-28T14:12:45.346Z,2.27
2022-09-28T14:15:39.998Z,2.23
2022-09-28T14:18:24.650Z,2.50
2022-09-28T14:21:15.777Z,1.97
2022-09-28T14:24:12.454Z,2.20
2022-09-28T14:27:15.854Z,2.50
2022-09-28T14:29:44.389Z,3.70
2022-09-28T14:32:26.585Z,3.00
2022-09-28T14:35:01.019Z,3.67
2022-09-28T14:38:01.199Z,4.83
2022-09-28T14:40:50.232Z,11.00
2022-09-28T14:43:36.991Z,7.30
2022-09-28T14:46:44.793Z,8.90
2022-09-28T14:49:49.050Z,8.40
2022-09-28T14:52:38.395Z,8.33
2022-09-28T14:55:14.048Z,7.27
2022-09-28T14:57:43.034Z,6.20
2022-09-28T15:00:21.574Z,5.63
2022-09-28T15:02:52.739Z,5.60
2022-09-28T15:05:25.195Z,7.03
2022-09-28T15:07:56.128Z,4.97
2022-09-28T15:10:31.286Z,4.80
2022-09-28T15:13:01.398Z,2.80
2022-09-28T15:15:34.523Z,2.40
2022-09-28T15:18:27.571Z,1.73
2022-09-28T15:20:56.418Z,1.90
2022-09-28T15:23:36.044Z,1.80
2022-09-28T15:26:07.172Z,1.77
2022-09-28T15:28:35.827Z,1.70
2022-09-28T15:31:05.575Z,1.60
2022-09-28T15:33:52.752Z,1.47
2022-09-28T15:36:24.153Z,1.60
2022-09-28T15:38:58.264Z,1.50
2022-09-28T15:41:27.519Z,1.60
2022-09-28T15:44:27.168Z,1.60
2022-09-28T15:47:07.547Z,1.37
2022-09-28T15:49:41.220Z,1.40
2022-09-28T15:52:24.662Z,1.40
2022-09-28T15:54:54.632Z,1.60
2022-09-28T15:57:36.937Z,1.27
2022-09-28T16:00:08.309Z,1.00
2022-09-28T16:02:36.800Z,1.00
2022-09-28T16:05:05.545Z,1.13
2022-09-28T16:07:39.472Z,0.93
2022-09-28T16:10:33.498Z,1.10
2022-09-28T16:13:25.603Z,1.10
2022-09-28T16:16:00.036Z,1.20
2022-09-28T16:18:29.746Z,1.17
2022-09-28T16:21:13.339Z,1.73
2022-09-28T16:23:42.571Z,1.87
2022-09-28T16:26:18.526Z,2.10
2022-09-28T16:28:52.084Z,2.53
2022-09-28T16:31:29.671Z,1.90
2022-09-28T16:34:01.196Z,1.60
2022-09-28T16:36:45.549Z,1.30
2022-09-28T16:39:14.269Z,1.30
2022-09-28T16:41:47.386Z,1.30
2022-09-28T16:44:20.766Z,1.07
2022-09-28T16:46:48.765Z,1.13
2022-09-28T16:49:20.991Z,1.10
2022-09-28T16:51:49.232Z,1.10
2022-09-28T16:54:36.712Z,1.10
2022-09-28T16:57:08.261Z,1.20
2022-09-28T16:59:38.412Z,1.20
2022-09-28T17:02:35.373Z,1.30
2022-09-28T17:05:06.474Z,1.10
2022-09-28T17:07:34.644Z,1.10
2022-09-28T17:10:02.663Z,1.80
2022-09-28T17:12:32.081Z,1.80
2022-09-28T17:15:00.476Z,2.70
2022-09-28T17:17:29.979Z,2.73
2022-09-28T17:19:57.900Z,3.00
2022-09-28T17:22:25.819Z,6.80
2022-09-28T17:24:53.703Z,4.70
2022-09-28T17:27:22.039Z,3.90
2022-09-28T17:29:51.433Z,4.27
2022-09-28T17:32:20.133Z,5.77
2022-09-28T17:34:55.982Z,12.03
2022-09-28T17:37:29.347Z,9.03
2022-09-28T17:39:57.138Z,10.40
2022-09-28T17:42:24.990Z,16.30
2022-09-28T17:44:54.215Z,16.83
2022-09-28T17:47:22.142Z,15.37
2022-09-28T17:49:51.423Z,11.87
2022-09-28T17:52:19.279Z,11.80
2022-09-28T17:54:47.260Z,12.33
2022-09-28T17:57:15.113Z,12.73
2022-09-28T17:59:42.962Z,11.27
2022-09-28T18:02:13.100Z,11.73
2022-09-28T18:04:51.918Z,11.37
2022-09-28T18:07:20.382Z,12.37
2022-09-28T18:09:48.199Z,12.43
2022-09-28T18:12:16.136Z,10.53
2022-09-28T18:14:44.043Z,11.53
2022-09-28T18:17:13.409Z,11.67
2022-09-28T18:19:41.287Z,11.60
2022-09-28T18:22:10.472Z,13.70
2022-09-28T18:24:38.767Z,15.53
2022-09-28T18:27:06.682Z,13.37
2022-09-28T18:29:34.635Z,14.03
2022-09-28T18:32:03.179Z,13.47
2022-09-28T18:34:32.511Z,15.07
2022-09-28T18:37:00.338Z,13.80
2022-09-28T18:39:28.434Z,12.20
2022-09-28T18:41:56.273Z,11.73
2022-09-28T18:44:24.663Z,12.93
2022-09-28T18:46:52.530Z,13.80
2022-09-28T18:49:20.598Z,13.60
2022-09-28T18:51:50.141Z,11.93
2022-09-28T18:54:18.375Z,12.50
2022-09-28T18:56:46.466Z,11.97
2022-09-28T18:59:14.904Z,13.17
2022-09-28T19:01:43.573Z,12.17
2022-09-28T19:04:13.556Z,11.03
2022-09-28T19:06:44.429Z,13.83
2022-09-28T19:09:14.005Z,12.27
2022-09-28T19:11:42.208Z,12.17
2022-09-28T19:14:11.171Z,12.37
2022-09-28T19:16:39.082Z,10.00
2022-09-28T19:19:07.077Z,9.80
2022-09-28T19:21:35.077Z,10.27
2022-09-28T19:24:04.421Z,10.57
2022-09-28T19:26:34.215Z,10.10
2022-09-28T19:29:03.077Z,9.83
2022-09-28T19:31:31.458Z,10.50
2022-09-28T19:34:01.632Z,10.50
2022-09-28T19:36:31.092Z,10.93
2022-09-28T19:39:02.201Z,10.60
2022-09-28T19:41:44.350Z,10.77
2022-09-28T19:44:24.462Z,11.93
2022-09-28T19:46:54.713Z,11.27
2022-09-28T19:49:23.582Z,11.60
2022-09-28T19:52:13.734Z,10.67
2022-09-28T19:54:45.050Z,12.60
2022-09-28T19:57:15.969Z,9.90
2022-09-28T19:59:48.474Z,9.43
2022-09-28T20:02:20.151Z,9.30
2022-09-28T20:04:48.186Z,8.67
2022-09-28T20:07:16.163Z,9.50
2022-09-28T20:09:44.219Z,8.17
2022-09-28T20:12:12.095Z,8.33
2022-09-28T20:14:40.534Z,7.07
2022-09-28T20:17:10.778Z,7.30
2022-09-28T20:19:39.185Z,6.97
2022-09-28T20:22:07.235Z,7.73
2022-09-28T20:24:35.149Z,7.03
2022-09-28T20:27:03.143Z,6.20
2022-09-28T20:29:33.514Z,5.67
2022-09-28T20:32:02.125Z,5.10
2022-09-28T20:34:31.466Z,5.97
2022-09-28T20:36:59.378Z,6.30
2022-09-28T20:39:27.549Z,6.60
2022-09-28T20:41:56.082Z,5.93
2022-09-28T20:44:24.042Z,5.63
2022-09-28T20:46:52.268Z,6.27
2022-09-28T20:49:20.122Z,6.20
2022-09-28T20:51:51.678Z,7.00
2022-09-28T20:54:19.720Z,6.53
2022-09-28T20:56:48.266Z,8.23
2022-09-28T20:59:26.536Z,7.50
2022-09-28T21:01:54.569Z,7.53
2022-09-28T21:04:22.492Z,7.40
2022-09-28T21:06:52.135Z,7.73
2022-09-28T21:09:20.073Z,7.17
2022-09-28T21:11:48.729Z,7.20
2022-09-28T21:14:16.795Z,7.40
2022-09-28T21:16:44.677Z,5.60
2022-09-28T21:19:12.550Z,4.60
2022-09-28T21:21:40.475Z,4.60
2022-09-28T21:24:10.187Z,3.73
2022-09-28T21:26:39.101Z,4.33
2022-09-28T21:29:08.813Z,3.30
2022-09-28T21:31:40.210Z,3.60
2022-09-28T21:34:08.557Z,3.80
2022-09-28T21:36:36.742Z,3.47
2022-09-28T21:39:09.530Z,3.70
2022-09-28T21:41:40.188Z,4.10
2022-09-28T21:44:08.572Z,3.80
2022-09-28T21:46:36.933Z,4.17
2022-09-28T21:49:07.597Z,4.17
2022-09-28T21:51:36.385Z,4.70
2022-09-28T21:54:04.463Z,4.07
2022-09-28T21:56:32.556Z,3.83
2022-09-28T21:59:02.529Z,4.70
2022-09-28T22:01:31.385Z,4.80
2022-09-28T22:03:59.508Z,4.93
2022-09-28T22:06:29.173Z,5.73
2022-09-28T22:08:57.836Z,5.43
2022-09-28T22:11:27.844Z,5.27
2022-09-28T22:13:57.600Z,5.67
2022-09-28T22:16:29.252Z,5.57
2022-09-28T22:18:57.282Z,5.63
2022-09-28T22:21:26.764Z,5.00
2022-09-28T22:23:55.098Z,5.10
2022-09-28T22:26:24.679Z,5.20
2022-09-28T22:28:54.648Z,5.10
2022-09-28T22:31:25.137Z,5.10
2022-09-28T22:33:54.905Z,5.50
2022-09-28T22:36:22.925Z,4.67
2022-09-28T22:38:51.088Z,4.77
2022-09-28T22:41:21.376Z,4.13
2022-09-28T22:43:50.808Z,4.70
2022-09-28T22:46:21.318Z,4.80
2022-09-28T22:48:50.483Z,4.03
2022-09-28T22:51:20.572Z,4.63
2022-09-28T22:53:48.692Z,4.90
2022-09-28T22:56:19.081Z,4.60
2022-09-28T22:58:48.012Z,4.87
2022-09-28T23:01:18.571Z,4.80
2022-09-28T23:03:46.974Z,5.27
2022-09-28T23:06:17.202Z,4.50
2022-09-28T23:08:47.643Z,4.60
2022-09-28T23:11:16.513Z,4.90
2022-09-28T23:13:44.885Z,5.17
2022-09-28T23:16:14.861Z,4.80
2022-09-28T23:18:43.740Z,4.53
2022-09-28T23:21:15.295Z,4.47
2022-09-28T23:23:43.752Z,5.40
2022-09-28T23:26:14.602Z,4.20
2022-09-28T23:28:42.739Z,5.23
2022-09-28T23:31:12.153Z,5.50
2022-09-28T23:33:46.328Z,5.07
2022-09-28T23:36:14.889Z,4.73
2022-09-28T23:38:42.910Z,5.40
2022-09-28T23:41:11.624Z,4.77
2022-09-28T23:43:40.903Z,5.20
2022-09-28T23:46:08.906Z,4.70
2022-09-28T23:48:36.801Z,4.63
2022-09-28T23:51:04.898Z,4.60
2022-09-28T23:54:00.192Z,4.63
2022-09-28T23:56:28.091Z,4.13
2022-09-28T23:58:57.584Z,3.20
